Time;durP1;ratioP1;P1;durP2;ratioP2;P2;SDS_P1;SDS_P2;PMS_P1;PMS_P2;Temp;Humidity;BMP_temperature;BMP_pressure;BME280_temperature;BME280_humidity;BME280_pressure;Samples;Min_cycle;Max_cycle;Signal;HPM_P1;HPM_P2
2022/04/19 00:01:21;;;;;;;38.50;23.38;;;8.20;99.90;;;;;;5067828;28;20449;-73
2022/04/19 00:03:47;;;;;;;30.08;23.00;;;8.20;99.90;;;;;;5064770;28;20097;-73
2022/04/19 00:06:12;;;;;;;37.67;22.60;;;8.20;99.90;;;;;;5060900;28;20155;-74
2022/04/19 00:08:38;;;;;;;35.38;24.13;;;8.10;99.90;;;;;;5064306;28;20557;-74
2022/04/19 00:11:04;;;;;;;36.92;24.92;;;8.00;99.90;;;;;;5047764;28;20045;-73
2022/04/19 00:13:30;;;;;;;33.47;24.20;;;7.90;99.90;;;;;;5062264;28;20088;-73
2022/04/19 00:15:59;;;;;;;32.65;24.23;;;7.90;99.90;;;;;;5066588;28;20051;-73
2022/04/19 00:18:27;;;;;;;41.13;25.27;;;7.80;99.90;;;;;;5061255;28;20044;-73
2022/04/19 00:20:52;;;;;;;32.23;23.43;;;7.70;99.90;;;;;;5066948;28;20091;-73
2022/04/19 00:23:18;;;;;;;30.75;23.80;;;7.60;99.90;;;;;;5063113;28;20057;-74
2022/04/19 00:25:47;;;;;;;38.60;24.23;;;7.60;99.90;;;;;;5056627;28;20107;-73
2022/04/19 00:28:14;;;;;;;35.42;24.83;;;7.60;99.90;;;;;;5065996;28;20068;-73
2022/04/19 00:30:41;;;;;;;35.35;24.80;;;7.50;99.90;;;;;;5060033;28;20056;-73
2022/04/19 00:33:08;;;;;;;30.05;24.48;;;7.50;99.90;;;;;;5066921;28;20444;-72
2022/04/19 00:35:35;;;;;;;40.47;26.23;;;7.40;99.90;;;;;;5069418;28;20504;-74
2022/04/19 00:38:01;;;;;;;35.08;26.77;;;7.40;99.90;;;;;;5070594;28;20052;-73
2022/04/19 00:40:27;;;;;;;43.08;25.73;;;7.40;99.90;;;;;;5070230;28;20063;-73
2022/04/19 00:42:56;;;;;;;32.25;25.10;;;7.30;99.90;;;;;;5070091;28;20041;-73
2022/04/19 00:45:22;;;;;;;32.97;25.02;;;7.30;99.90;;;;;;5069674;28;20508;-73
2022/04/19 00:47:49;;;;;;;32.83;24.23;;;7.30;99.90;;;;;;5071216;28;20040;-73
2022/04/19 00:50:15;;;;;;;37.88;26.70;;;7.30;99.90;;;;;;5069672;28;20049;-73
2022/04/19 00:52:43;;;;;;;39.13;26.80;;;7.30;99.90;;;;;;5071436;28;20048;-72
2022/04/19 00:55:09;;;;;;;32.97;27.00;;;7.20;99.90;;;;;;5070963;28;21032;-73
2022/04/19 00:57:40;;;;;;;37.30;28.08;;;7.20;99.90;;;;;;5070549;28;20473;-72
2022/04/19 01:00:12;;;;;;;38.70;28.25;;;7.20;99.90;;;;;;5053635;28;20045;-73
2022/04/19 01:02:37;;;;;;;38.70;25.38;;;7.10;99.90;;;;;;5070503;28;20063;-73
2022/04/19 01:05:04;;;;;;;31.40;24.00;;;7.10;99.90;;;;;;5065946;28;20036;-73
2022/04/19 01:07:30;;;;;;;39.28;26.73;;;7.10;99.90;;;;;;5050694;28;20107;-72
2022/04/19 01:09:56;;;;;;;37.05;24.42;;;7.10;99.90;;;;;;5049768;28;20402;-73
2022/04/19 01:15:08;;;;;;;33.85;25.45;;;7.10;99.90;;;;;;5064092;28;20098;-72
2022/04/19 01:17:39;;;;;;;34.72;26.05;;;7.20;99.90;;;;;;5070308;28;20076;-73
2022/04/19 01:20:10;;;;;;;40.88;26.33;;;7.20;99.90;;;;;;5064771;28;20086;-73
2022/04/19 01:22:40;;;;;;;32.42;25.13;;;7.20;99.90;;;;;;5070745;28;20456;-73
2022/04/19 01:25:07;;;;;;;39.45;25.08;;;7.20;99.90;;;;;;5064917;28;20398;-73
2022/04/19 01:27:33;;;;;;;39.38;25.85;;;7.10;99.90;;;;;;5057564;28;20105;-73
2022/04/19 01:30:03;;;;;;;32.25;22.70;;;7.10;99.90;;;;;;5069531;28;20044;-73
2022/04/19 01:32:32;;;;;;;30.40;22.48;;;7.10;99.90;;;;;;5068793;28;20124;-73
2022/04/19 01:35:08;;;;;;;37.65;24.85;;;7.00;99.90;;;;;;5070262;28;20086;-73
2022/04/19 01:37:35;;;;;;;34.05;25.95;;;6.90;99.90;;;;;;5070249;28;20102;-73
2022/04/19 01:40:17;;;;;;;33.10;23.73;;;6.80;99.90;;;;;;5070597;28;20449;-73
2022/04/19 01:42:45;;;;;;;37.63;25.95;;;6.80;99.90;;;;;;5065501;28;20501;-73
2022/04/19 01:45:18;;;;;;;36.67;27.15;;;6.70;99.90;;;;;;5067090;28;20060;-73
2022/04/19 01:47:44;;;;;;;33.28;25.42;;;6.70;99.90;;;;;;5053401;28;20405;-72
2022/04/19 01:50:12;;;;;;;35.38;25.52;;;6.60;99.90;;;;;;5069789;28;20461;-72
2022/04/19 01:52:41;;;;;;;35.67;24.83;;;6.60;99.90;;;;;;5068615;28;20062;-72
2022/04/19 01:55:09;;;;;;;44.17;26.95;;;6.60;99.90;;;;;;5067876;28;20055;-73
2022/04/19 01:57:36;;;;;;;35.25;24.48;;;6.50;99.90;;;;;;5068987;28;20059;-73
2022/04/19 02:00:05;;;;;;;34.65;25.15;;;6.50;99.90;;;;;;5069034;28;20052;-73
2022/04/19 02:02:32;;;;;;;38.47;25.10;;;6.50;99.90;;;;;;5068586;28;20044;-72
2022/04/19 02:04:58;;;;;;;38.28;27.15;;;6.50;99.90;;;;;;5070060;28;20051;-73
2022/04/19 02:07:23;;;;;;;34.10;24.35;;;6.40;99.90;;;;;;5069450;28;20436;-72
2022/04/19 02:09:50;;;;;;;35.60;26.35;;;6.50;99.90;;;;;;5069065;28;20044;-72
2022/04/19 02:12:16;;;;;;;32.47;23.67;;;6.50;99.90;;;;;;5071453;28;20134;-73
2022/04/19 02:14:42;;;;;;;38.40;24.38;;;6.40;99.90;;;;;;5070022;28;20936;-73
2022/04/19 02:17:09;;;;;;;42.33;25.33;;;6.40;99.90;;;;;;5069920;28;20063;-73
2022/04/19 02:19:37;;;;;;;36.50;26.48;;;6.40;99.90;;;;;;5069609;28;20052;-73
2022/04/19 02:22:09;;;;;;;32.33;23.85;;;6.40;99.90;;;;;;5069014;28;20485;-73
2022/04/19 02:24:35;;;;;;;39.00;24.58;;;6.40;99.90;;;;;;5067648;28;20516;-74
2022/04/19 02:27:03;;;;;;;33.58;24.95;;;6.30;99.90;;;;;;5069829;28;20056;-73
2022/04/19 02:29:28;;;;;;;41.08;25.17;;;6.30;99.90;;;;;;5068567;28;20143;-73
2022/04/19 02:31:54;;;;;;;37.30;26.30;;;6.30;99.90;;;;;;5055558;28;20538;-73
2022/04/19 02:34:20;;;;;;;39.45;26.35;;;6.30;99.90;;;;;;5064734;28;20088;-73
2022/04/19 02:36:46;;;;;;;34.47;24.98;;;6.20;99.90;;;;;;5035769;28;20094;-74
2022/04/19 02:39:20;;;;;;;36.63;24.17;;;6.20;99.90;;;;;;5068297;28;20044;-74
2022/04/19 02:41:46;;;;;;;35.92;25.13;;;6.10;99.90;;;;;;5063493;28;20136;-74
2022/04/19 02:44:13;;;;;;;38.72;25.17;;;6.20;99.90;;;;;;5048060;28;20730;-74
2022/04/19 02:46:39;;;;;;;35.28;26.75;;;6.10;99.90;;;;;;5052188;28;20056;-74
2022/04/19 02:49:05;;;;;;;40.60;27.42;;;6.10;99.90;;;;;;5067971;28;20044;-74
2022/04/19 02:51:32;;;;;;;40.03;29.67;;;6.10;99.90;;;;;;5068184;28;20484;-74
2022/04/19 02:53:58;;;;;;;38.30;26.10;;;6.10;99.90;;;;;;5067806;28;20039;-74
2022/04/19 02:56:24;;;;;;;35.05;25.60;;;6.00;99.90;;;;;;5058704;28;20644;-74
2022/04/19 02:58:50;;;;;;;33.78;26.25;;;6.00;99.90;;;;;;5068446;28;20134;-72
2022/04/19 03:01:15;;;;;;;36.72;26.27;;;6.00;99.90;;;;;;5068738;28;20055;-72
2022/04/19 03:03:43;;;;;;;31.75;24.98;;;6.00;99.90;;;;;;5064454;28;20041;-73
2022/04/19 03:06:08;;;;;;;44.90;27.42;;;5.90;99.90;;;;;;5048973;28;20133;-72
2022/04/19 03:08:35;;;;;;;33.40;25.33;;;5.80;99.90;;;;;;5049011;28;20135;-73
2022/04/19 03:11:02;;;;;;;37.30;26.23;;;5.80;99.90;;;;;;5059347;28;20186;-72
2022/04/19 03:13:28;;;;;;;47.63;26.38;;;5.80;99.90;;;;;;5058087;28;20067;-72
2022/04/19 03:15:54;;;;;;;35.05;26.35;;;5.70;99.90;;;;;;5068693;28;20744;-72
2022/04/19 03:18:20;;;;;;;39.08;27.17;;;5.80;99.90;;;;;;5059992;28;20056;-73
2022/04/19 03:20:46;;;;;;;39.53;29.55;;;5.80;99.90;;;;;;5047609;28;20064;-73
2022/04/19 03:28:42;;;;;;;37.63;28.48;;;5.70;99.90;;;;;;5047057;28;20053;-73
2022/04/19 03:31:08;;;;;;;40.72;29.00;;;5.70;99.90;;;;;;5055769;28;20101;-73
2022/04/19 03:33:37;;;;;;;43.53;30.27;;;5.70;99.90;;;;;;5066176;28;20042;-73
2022/04/19 03:36:04;;;;;;;40.67;28.80;;;5.60;99.90;;;;;;5067663;28;20048;-73
2022/04/19 03:38:29;;;;;;;40.85;28.85;;;5.60;99.90;;;;;;5061937;28;20104;-73
2022/04/19 03:40:56;;;;;;;48.83;30.92;;;5.60;99.90;;;;;;5060476;28;20048;-73
2022/04/19 03:43:22;;;;;;;41.65;29.00;;;5.60;99.90;;;;;;5038742;28;20036;-73
2022/04/19 03:45:48;;;;;;;43.80;30.27;;;5.60;99.90;;;;;;5065602;28;20044;-73
2022/04/19 03:48:14;;;;;;;40.72;30.20;;;5.60;99.90;;;;;;5066180;28;20044;-74
2022/04/19 03:50:40;;;;;;;40.33;29.70;;;5.60;99.90;;;;;;5066883;28;20089;-73
2022/04/19 03:53:07;;;;;;;40.30;31.25;;;5.60;99.90;;;;;;5059907;28;20059;-73
2022/04/19 03:55:33;;;;;;;46.13;30.25;;;5.60;99.90;;;;;;5066054;28;20040;-73
2022/04/19 03:57:59;;;;;;;55.25;32.83;;;5.60;99.90;;;;;;5067140;28;20056;-73
2022/04/19 04:00:24;;;;;;;54.50;33.00;;;5.50;99.90;;;;;;5067102;28;20044;-73
2022/04/19 04:02:51;;;;;;;55.72;36.03;;;5.50;99.90;;;;;;5065694;28;20052;-73
2022/04/19 04:05:18;;;;;;;47.97;32.47;;;5.50;99.90;;;;;;5067597;28;20056;-73
2022/04/19 04:07:43;;;;;;;52.17;32.30;;;5.50;99.90;;;;;;5055019;28;20070;-74
2022/04/19 04:10:09;;;;;;;46.53;32.83;;;5.50;99.90;;;;;;5064342;28;20048;-74
2022/04/19 04:12:35;;;;;;;63.90;34.15;;;5.50;99.90;;;;;;5066670;28;20128;-73
2022/04/19 04:15:01;;;;;;;47.83;33.45;;;5.50;99.90;;;;;;5070430;28;20123;-73
2022/04/19 04:17:27;;;;;;;52.55;34.15;;;5.50;99.90;;;;;;5054289;28;20051;-73
2022/04/19 04:19:52;;;;;;;48.42;34.53;;;5.50;99.90;;;;;;5053462;28;20842;-74
2022/04/19 04:22:19;;;;;;;52.10;33.85;;;5.50;99.90;;;;;;5071318;28;20106;-73
2022/04/19 04:24:44;;;;;;;50.83;34.50;;;5.40;99.90;;;;;;5063399;28;20045;-74
2022/04/19 04:27:10;;;;;;;52.17;34.08;;;5.40;99.90;;;;;;5068819;28;20037;-73
2022/04/19 04:29:36;;;;;;;54.63;35.88;;;5.40;99.90;;;;;;5069357;28;20036;-73
2022/04/19 04:32:03;;;;;;;53.85;34.38;;;5.40;99.90;;;;;;5070141;28;20047;-74
2022/04/19 04:34:29;;;;;;;52.13;34.90;;;5.30;99.90;;;;;;5069901;28;20040;-74
2022/04/19 04:36:55;;;;;;;50.33;35.03;;;5.30;99.90;;;;;;5071340;28;20106;-73
2022/04/19 04:39:21;;;;;;;49.60;35.47;;;5.30;99.90;;;;;;5067023;28;20102;-74
2022/04/19 04:41:47;;;;;;;47.63;34.08;;;5.30;99.90;;;;;;5069894;28;20557;-73
2022/04/19 04:44:12;;;;;;;47.47;34.08;;;5.40;99.90;;;;;;5071327;28;20155;-73
2022/04/19 04:49:35;;;;;;;55.75;34.33;;;5.60;99.90;;;;;;5050658;28;20063;-73
2022/04/19 04:52:04;;;;;;;53.28;35.70;;;5.70;99.90;;;;;;5066092;28;20098;-72
2022/04/19 04:54:30;;;;;;;54.10;35.42;;;5.80;99.90;;;;;;5069753;28;20055;-72
2022/04/19 04:56:56;;;;;;;51.00;34.28;;;5.90;99.90;;;;;;5061924;28;20410;-71
2022/04/19 04:59:21;;;;;;;53.05;32.33;;;6.00;99.90;;;;;;5051248;28;20048;-72
2022/04/19 05:01:47;;;;;;;70.00;35.35;;;6.10;99.90;;;;;;5069405;28;20048;-72
2022/04/19 05:04:13;;;;;;;49.15;32.13;;;6.30;99.90;;;;;;5070651;28;20048;-73
2022/04/19 05:06:38;;;;;;;44.72;30.55;;;6.50;99.90;;;;;;5070011;28;20551;-71
2022/04/19 05:09:04;;;;;;;52.28;31.27;;;6.70;99.90;;;;;;5067975;28;20517;-71
2022/04/19 05:11:30;;;;;;;44.25;30.75;;;6.80;99.90;;;;;;5064812;28;20516;-71
2022/04/19 05:13:57;;;;;;;41.83;30.48;;;7.00;99.90;;;;;;5068590;28;20127;-71
2022/04/19 05:16:24;;;;;;;41.45;30.65;;;7.20;99.90;;;;;;5070051;28;20105;-71
2022/04/19 05:18:49;;;;;;;43.40;30.67;;;7.30;99.90;;;;;;5070045;28;20128;-71
2022/04/19 05:21:15;;;;;;;46.85;32.05;;;7.40;99.90;;;;;;5069848;28;20052;-71
2022/04/19 05:23:41;;;;;;;46.72;31.67;;;7.60;99.90;;;;;;5068625;28;20055;-71
2022/04/19 05:26:07;;;;;;;43.80;31.20;;;7.60;99.90;;;;;;5070149;28;20115;-71
2022/04/19 05:28:33;;;;;;;48.70;31.08;;;7.70;99.90;;;;;;5067967;28;20122;-71
2022/04/19 05:30:59;;;;;;;52.47;32.53;;;7.80;99.90;;;;;;5072045;28;20515;-71
2022/04/19 05:33:24;;;;;;;48.08;29.58;;;7.90;99.90;;;;;;5070783;28;20109;-71
2022/04/19 05:35:51;;;;;;;46.75;29.35;;;8.00;99.90;;;;;;5069512;28;20040;-71
2022/04/19 05:38:17;;;;;;;45.47;29.23;;;8.10;99.90;;;;;;5058131;28;20102;-71
2022/04/19 05:40:43;;;;;;;51.92;29.63;;;8.20;99.90;;;;;;5056349;28;20048;-71
2022/04/19 05:43:08;;;;;;;46.10;28.98;;;8.30;99.90;;;;;;5071390;28;20043;-71
2022/04/19 05:45:34;;;;;;;44.40;31.25;;;8.40;99.90;;;;;;5073974;28;20049;-71
2022/04/19 05:48:00;;;;;;;37.00;28.08;;;8.40;99.90;;;;;;5068941;28;21025;-71
2022/04/19 05:50:26;;;;;;;40.60;29.13;;;8.50;99.90;;;;;;5069837;28;20125;-71
2022/04/19 05:52:52;;;;;;;58.00;31.98;;;8.50;99.90;;;;;;5063208;28;20432;-71
2022/04/19 05:55:17;;;;;;;42.63;28.77;;;8.40;99.90;;;;;;5067912;28;20079;-70
2022/04/19 05:57:45;;;;;;;39.13;25.92;;;8.40;99.90;;;;;;5067335;28;20064;-71
2022/04/19 06:00:12;;;;;;;36.05;27.63;;;8.40;99.90;;;;;;5057196;28;20087;-72
2022/04/19 06:05:21;;;;;;;50.58;30.08;;;8.50;99.90;;;;;;5067998;28;20088;-72
2022/04/19 06:07:48;;;;;;;36.22;26.52;;;8.50;99.90;;;;;;5068647;28;20578;-71
2022/04/19 06:10:15;;;;;;;49.03;29.63;;;8.60;99.90;;;;;;5065544;28;20125;-71
2022/04/19 06:12:41;;;;;;;45.85;30.75;;;8.60;99.90;;;;;;5049001;28;20103;-71
2022/04/19 06:15:07;;;;;;;53.28;31.45;;;8.70;99.90;;;;;;5049392;28;20561;-71
2022/04/19 06:17:35;;;;;;;46.38;28.52;;;8.80;99.90;;;;;;5046928;28;20046;-71
2022/04/19 06:20:02;;;;;;;50.05;30.15;;;8.80;99.90;;;;;;5059609;28;20450;-71
2022/04/19 06:22:28;;;;;;;46.30;28.55;;;8.90;99.90;;;;;;5068970;28;20120;-71
2022/04/19 06:24:55;;;;;;;41.88;27.10;;;9.00;99.90;;;;;;5068625;28;20119;-71
2022/04/19 06:27:21;;;;;;;40.13;27.85;;;9.00;99.90;;;;;;5068983;28;20053;-71
2022/04/19 06:29:50;;;;;;;34.63;26.70;;;9.00;99.90;;;;;;5067208;28;20048;-71
2022/04/19 06:32:15;;;;;;;44.92;28.05;;;9.10;99.90;;;;;;5066176;28;20105;-71
2022/04/19 06:34:41;;;;;;;36.63;26.38;;;9.20;99.90;;;;;;5071085;28;20553;-70
2022/04/19 06:37:07;;;;;;;40.17;26.55;;;9.30;99.90;;;;;;5071270;28;20051;-71
2022/04/19 06:39:33;;;;;;;41.78;27.27;;;9.30;99.90;;;;;;5068045;28;20041;-71
2022/04/19 06:41:58;;;;;;;44.05;27.00;;;9.40;99.90;;;;;;5052866;28;20041;-71
2022/04/19 06:44:24;;;;;;;50.42;26.58;;;9.50;99.90;;;;;;5060307;28;20041;-71
2022/04/19 06:46:50;;;;;;;37.05;25.30;;;9.60;99.90;;;;;;5054040;28;20052;-71
2022/04/19 06:49:19;;;;;;;39.72;25.02;;;9.70;99.90;;;;;;5059064;28;20033;-70
2022/04/19 06:51:46;;;;;;;35.50;25.80;;;9.80;99.90;;;;;;5065452;28;20064;-71
2022/04/19 06:54:12;;;;;;;39.65;25.42;;;10.00;99.90;;;;;;5068435;28;20041;-74
2022/04/19 06:56:38;;;;;;;36.00;24.08;;;10.30;99.90;;;;;;5066833;28;20678;-73
2022/04/19 06:59:04;;;;;;;39.25;25.20;;;10.50;99.90;;;;;;5066769;28;20059;-73
2022/04/19 07:01:29;;;;;;;37.20;22.88;;;10.70;99.90;;;;;;5068173;28;20048;-73
2022/04/19 07:03:55;;;;;;;43.08;23.42;;;11.00;99.90;;;;;;5049775;28;20040;-73
2022/04/19 07:06:21;;;;;;;37.78;23.95;;;11.30;99.90;;;;;;5051132;28;20041;-73
2022/04/19 07:08:47;;;;;;;34.80;23.92;;;11.50;99.90;;;;;;5068053;28;20123;-73
2022/04/19 07:11:15;;;;;;;29.58;21.88;;;11.80;99.90;;;;;;5068217;28;20040;-73
2022/04/19 07:13:41;;;;;;;43.63;23.33;;;11.90;99.90;;;;;;5068663;28;20047;-73
2022/04/19 07:16:07;;;;;;;41.40;23.25;;;12.10;99.90;;;;;;5067709;28;20119;-74
2022/04/19 07:18:33;;;;;;;39.25;21.25;;;12.30;99.90;;;;;;5067794;28;20083;-73
2022/04/19 07:26:44;;;;;;;26.88;19.38;;;12.60;99.90;;;;;;5063299;28;20068;-74
2022/04/19 07:29:12;;;;;;;34.22;20.45;;;12.70;99.90;;;;;;5047765;28;20049;-74
2022/04/19 07:31:39;;;;;;;25.98;18.63;;;12.80;99.90;;;;;;5056691;28;20582;-74
2022/04/19 07:34:05;;;;;;;29.92;20.15;;;12.90;99.90;;;;;;5067508;28;20111;-74
2022/04/19 07:36:30;;;;;;;26.90;20.40;;;12.90;99.90;;;;;;5065069;28;20084;-73
2022/04/19 07:38:59;;;;;;;30.77;19.73;;;13.30;99.90;;;;;;5066955;28;20783;-74
2022/04/19 07:41:25;;;;;;;22.95;17.25;;;13.50;99.90;;;;;;5066456;28;20040;-75
2022/04/19 07:43:51;;;;;;;23.00;16.50;;;13.50;99.90;;;;;;5065993;28;20087;-74
2022/04/19 07:46:18;;;;;;;25.05;17.40;;;13.50;99.90;;;;;;5062716;28;20195;-74
2022/04/19 07:48:44;;;;;;;22.90;17.35;;;13.50;99.40;;;;;;5065007;28;20391;-72
2022/04/19 07:51:12;;;;;;;22.90;17.05;;;13.70;98.50;;;;;;5058330;28;20127;-74
2022/04/19 07:53:38;;;;;;;29.58;17.85;;;13.70;95.70;;;;;;5051022;28;20056;-73
2022/04/19 07:56:04;;;;;;;28.92;17.35;;;14.00;96.30;;;;;;5063403;28;20406;-74
2022/04/19 07:58:30;;;;;;;28.42;17.27;;;14.00;95.30;;;;;;5066533;28;20045;-75
2022/04/19 08:00:56;;;;;;;29.27;16.90;;;14.10;96.10;;;;;;5064639;28;20060;-74
2022/04/19 08:03:21;;;;;;;25.77;16.35;;;14.10;93.00;;;;;;5066773;28;20094;-74
2022/04/19 08:05:47;;;;;;;25.73;16.27;;;14.10;92.70;;;;;;5066049;28;20052;-74
2022/04/19 08:08:13;;;;;;;24.35;17.45;;;14.30;90.30;;;;;;5065740;28;20064;-74
2022/04/19 08:10:38;;;;;;;20.05;15.90;;;14.30;90.70;;;;;;5062773;28;20114;-74
2022/04/19 08:13:04;;;;;;;25.83;15.18;;;14.40;89.60;;;;;;5047525;28;20052;-74
2022/04/19 08:15:31;;;;;;;26.02;16.48;;;14.40;86.20;;;;;;5046360;28;20453;-75
2022/04/19 08:17:57;;;;;;;21.83;16.08;;;14.50;84.60;;;;;;5047306;28;20100;-73
2022/04/19 08:20:23;;;;;;;17.60;13.23;;;14.60;79.90;;;;;;5047513;28;20048;-74
2022/04/19 08:22:49;;;;;;;15.75;12.75;;;14.60;79.20;;;;;;5050379;28;20128;-75
2022/04/19 08:25:15;;;;;;;19.98;11.25;;;14.70;76.20;;;;;;5047217;28;20132;-73
2022/04/19 08:27:45;;;;;;;21.77;13.50;;;14.90;75.50;;;;;;5046087;28;20049;-75
2022/04/19 08:30:12;;;;;;;15.95;10.48;;;14.90;73.20;;;;;;5062486;28;20045;-75
2022/04/19 08:32:38;;;;;;;11.13;8.57;;;14.90;71.30;;;;;;5064467;28;20055;-74
2022/04/19 08:35:05;;;;;;;16.08;9.55;;;15.00;68.30;;;;;;5066550;28;20036;-74
2022/04/19 08:37:32;;;;;;;15.90;9.33;;;15.10;67.20;;;;;;5065205;28;20880;-75
2022/04/19 08:39:58;;;;;;;16.27;9.52;;;15.10;63.70;;;;;;5066948;28;20037;-74
2022/04/19 08:42:24;;;;;;;12.73;9.38;;;15.10;62.40;;;;;;5068418;28;20041;-74
2022/04/19 08:44:50;;;;;;;21.55;10.90;;;15.10;62.40;;;;;;5062941;28;20052;-73
2022/04/19 08:47:16;;;;;;;13.30;7.53;;;15.30;62.20;;;;;;5047356;28;20041;-75
2022/04/19 08:49:42;;;;;;;10.00;7.47;;;15.30;59.20;;;;;;5048593;28;20040;-76
2022/04/19 08:52:14;;;;;;;11.63;7.65;;;15.10;59.20;;;;;;5065969;28;20091;-75
2022/04/19 08:57:30;;;;;;;12.18;8.90;;;15.50;61.10;;;;;;5050505;28;20053;-68
2022/04/19 09:00:01;;;;;;;9.32;7.00;;;15.50;59.70;;;;;;5065530;28;20045;-69
2022/04/19 09:02:29;;;;;;;8.40;6.47;;;15.50;58.20;;;;;;5058545;28;20044;-69
2022/04/19 09:05:26;;;;;;;7.32;6.07;;;15.50;56.80;;;;;;5063937;28;20045;-69
2022/04/19 09:07:58;;;;;;;11.48;5.68;;;15.50;57.20;;;;;;5068357;28;20040;-69
2022/04/19 09:10:34;;;;;;;7.43;5.45;;;15.60;56.10;;;;;;5058926;28;20123;-69
2022/04/19 09:13:08;;;;;;;8.07;5.82;;;15.70;54.70;;;;;;5050654;28;20037;-69
2022/04/19 09:15:36;;;;;;;19.38;6.28;;;15.80;55.00;;;;;;5065461;28;20044;-68
2022/04/19 09:18:02;;;;;;;7.32;6.30;;;15.80;53.80;;;;;;5052910;28;20052;-69
2022/04/19 09:20:28;;;;;;;8.32;5.78;;;15.70;55.50;;;;;;5060380;28;20418;-69
2022/04/19 09:23:21;;;;;;;7.18;5.05;;;15.60;54.50;;;;;;5055092;28;20051;-69
2022/04/19 09:25:51;;;;;;;13.23;7.32;;;15.70;54.20;;;;;;5068210;28;20083;-69
2022/04/19 09:28:18;;;;;;;9.10;6.20;;;16.00;55.20;;;;;;5068514;28;20408;-70
2022/04/19 09:30:45;;;;;;;9.10;5.63;;;16.00;54.90;;;;;;5068807;28;20052;-69
2022/04/19 09:33:14;;;;;;;7.47;6.53;;;16.10;53.60;;;;;;5067351;28;20044;-69
2022/04/19 09:35:54;;;;;;;10.13;7.47;;;15.90;54.30;;;;;;5060843;28;20110;-70
2022/04/19 09:38:39;;;;;;;10.13;7.22;;;15.60;52.20;;;;;;5068764;28;20054;-70
2022/04/19 09:41:06;;;;;;;9.25;7.35;;;15.60;53.60;;;;;;5069996;28;20059;-71
2022/04/19 09:43:34;;;;;;;11.25;7.35;;;15.60;54.20;;;;;;5064714;28;20055;-69
2022/04/19 09:46:03;;;;;;;15.13;7.80;;;15.90;56.10;;;;;;5062357;28;20044;-70
2022/04/19 09:48:42;;;;;;;8.70;6.38;;;16.10;53.60;;;;;;5067372;28;20324;-70
2022/04/19 09:51:12;;;;;;;10.18;6.72;;;16.20;54.70;;;;;;5068581;28;20059;-69
2022/04/19 09:53:48;;;;;;;8.48;6.05;;;16.40;54.00;;;;;;5067667;28;20045;-69
2022/04/19 09:56:23;;;;;;;9.20;6.55;;;16.20;53.30;;;;;;5061348;28;20193;-69
2022/04/19 09:58:50;;;;;;;6.55;5.53;;;16.10;52.70;;;;;;5069758;28;20048;-68
2022/04/19 10:09:34;;;;;;;5.72;4.80;;;16.10;53.50;;;;;;5069253;28;20071;-69
2022/04/19 10:12:01;;;;;;;10.60;6.95;;;16.30;53.50;;;;;;5070073;28;20110;-69
2022/04/19 10:14:29;;;;;;;12.05;7.00;;;16.30;52.80;;;;;;5079319;28;20050;-69
2022/04/19 10:16:58;;;;;;;8.73;6.75;;;16.40;52.80;;;;;;5058988;28;20087;-69
2022/04/19 10:19:24;;;;;;;8.02;6.28;;;16.50;52.80;;;;;;5065480;28;20048;-69
2022/04/19 10:21:51;;;;;;;13.73;7.63;;;16.80;53.30;;;;;;5063565;28;20083;-70
2022/04/19 10:24:17;;;;;;;7.07;6.25;;;16.90;53.50;;;;;;5069313;28;20489;-69
2022/04/19 10:26:48;;;;;;;9.90;6.55;;;17.10;52.90;;;;;;5068988;28;20045;-69
2022/04/19 10:29:25;;;;;;;7.30;6.32;;;17.00;53.80;;;;;;5069316;28;20041;-69
2022/04/19 10:32:01;;;;;;;6.53;5.85;;;16.60;51.70;;;;;;5067657;28;20084;-69
2022/04/19 10:34:29;;;;;;;9.25;6.28;;;16.80;52.40;;;;;;5069057;28;20045;-68
2022/04/19 10:36:57;;;;;;;7.10;5.32;;;16.60;52.80;;;;;;5068569;28;20041;-68
2022/04/19 10:39:33;;;;;;;6.55;5.88;;;16.60;52.70;;;;;;5067140;28;20083;-69
2022/04/19 10:42:03;;;;;;;12.93;6.72;;;16.80;52.40;;;;;;5050638;28;20794;-69
2022/04/19 10:44:41;;;;;;;11.45;6.82;;;16.90;52.60;;;;;;5048633;28;20063;-68
2022/04/19 10:47:20;;;;;;;7.55;6.25;;;16.90;52.50;;;;;;5063041;28;20051;-70
2022/04/19 10:50:04;;;;;;;6.63;5.93;;;16.70;51.50;;;;;;5068566;28;20044;-69
2022/04/19 10:52:37;;;;;;;9.60;6.90;;;16.70;52.70;;;;;;5069011;28;20052;-69
2022/04/19 10:55:07;;;;;;;9.23;6.32;;;16.90;53.70;;;;;;5068458;28;20055;-69
2022/04/19 11:00:31;;;;;;;8.77;6.80;;;16.80;53.70;;;;;;5068657;28;20057;-69
2022/04/19 11:03:01;;;;;;;10.40;6.55;;;16.80;52.70;;;;;;5067683;28;20125;-69
2022/04/19 11:05:43;;;;;;;7.90;5.57;;;17.10;53.40;;;;;;5068876;28;20041;-69
2022/04/19 11:08:27;;;;;;;7.47;6.35;;;16.90;52.50;;;;;;5069375;28;20133;-69
2022/04/19 11:11:20;;;;;;;8.20;6.57;;;17.00;52.70;;;;;;5057775;28;20052;-69
2022/04/19 11:14:19;;;;;;;14.15;7.50;;;17.00;52.30;;;;;;5049268;28;20045;-70
2022/04/19 11:16:50;;;;;;;27.15;9.38;;;17.20;53.30;;;;;;5065793;28;20492;-69
2022/04/19 11:19:25;;;;;;;9.65;6.43;;;17.50;52.20;;;;;;5063486;28;20103;-69
2022/04/19 11:21:58;;;;;;;10.10;7.15;;;17.40;51.10;;;;;;5047713;28;20752;-69
2022/04/19 11:25:01;;;;;;;14.40;7.18;;;17.30;52.60;;;;;;5051508;28;20044;-68
2022/04/19 11:27:56;;;;;;;10.52;7.03;;;17.30;52.30;;;;;;5065540;28;20152;-69
2022/04/19 11:30:23;;;;;;;15.93;7.30;;;17.30;51.40;;;;;;5067899;28;20045;-69
2022/04/19 11:32:50;;;;;;;12.10;7.30;;;17.20;52.40;;;;;;5067749;28;20040;-69
2022/04/19 11:35:17;;;;;;;8.82;6.00;;;17.20;51.20;;;;;;5067998;28;20139;-68
2022/04/19 11:37:44;;;;;;;8.47;7.03;;;17.50;52.10;;;;;;5067659;28;20098;-69
2022/04/19 11:48:50;;;;;;;13.35;8.88;;;17.50;51.30;;;;;;5067610;28;20056;-70
2022/04/19 11:51:20;;;;;;;8.40;6.57;;;17.60;50.80;;;;;;5067865;28;20056;-69
2022/04/19 11:53:47;;;;;;;12.52;9.15;;;17.70;51.40;;;;;;5068045;28;20045;-69
2022/04/19 11:56:13;;;;;;;13.68;8.40;;;17.70;51.90;;;;;;5065369;28;20071;-69
2022/04/19 11:58:43;;;;;;;8.07;7.25;;;17.40;51.50;;;;;;5067279;28;20037;-69
2022/04/19 12:01:10;;;;;;;11.20;7.95;;;17.30;51.50;;;;;;5063721;28;20037;-68
2022/04/19 12:03:38;;;;;;;8.48;6.95;;;17.20;50.80;;;;;;5061140;28;20113;-69
2022/04/19 12:06:09;;;;;;;8.77;7.70;;;17.20;51.10;;;;;;5067296;28;20525;-69
2022/04/19 12:08:46;;;;;;;12.73;7.15;;;17.30;51.50;;;;;;5066907;28;20041;-69
2022/04/19 12:11:16;;;;;;;9.48;6.95;;;17.40;50.10;;;;;;5058846;28;20094;-69
2022/04/19 12:13:43;;;;;;;9.73;5.78;;;17.50;50.70;;;;;;5054984;28;20127;-69
2022/04/19 12:16:30;;;;;;;10.93;6.57;;;17.60;51.30;;;;;;5063134;28;20501;-68
2022/04/19 12:18:58;;;;;;;9.93;7.20;;;17.50;49.60;;;;;;5063109;28;20075;-69
2022/04/19 12:21:40;;;;;;;;;;;17.60;50.20;;;;;;5052196;28;20506;-69
2022/04/19 12:24:20;;;;;;;7.72;6.40;;;17.70;51.20;;;;;;5058950;28;19924;-69
2022/04/19 12:26:50;;;;;;;9.68;6.90;;;17.70;51.30;;;;;;5046037;28;20056;-69
2022/04/19 12:29:16;;;;;;;8.25;6.45;;;17.70;51.40;;;;;;5058273;28;20033;-68
2022/04/19 12:31:47;;;;;;;8.00;5.63;;;17.70;50.30;;;;;;5050463;28;20050;-69
2022/04/19 12:34:15;;;;;;;7.43;5.75;;;17.70;50.80;;;;;;5070465;28;20045;-69
2022/04/19 12:36:48;;;;;;;7.57;6.20;;;17.50;50.70;;;;;;5070941;28;20836;-69
2022/04/19 12:39:16;;;;;;;11.65;7.40;;;17.40;52.10;;;;;;5067764;28;20036;-69
2022/04/19 12:41:43;;;;;;;12.85;7.95;;;17.40;51.80;;;;;;5068254;28;20045;-69
2022/04/19 12:44:14;;;;;;;9.90;6.40;;;17.40;51.70;;;;;;5067604;28;20115;-69
2022/04/19 12:46:41;;;;;;;9.50;5.22;;;17.50;51.20;;;;;;5071418;28;20047;-69
2022/04/19 12:49:07;;;;;;;10.25;6.43;;;17.80;51.20;;;;;;5060001;28;20045;-69
2022/04/19 12:51:35;;;;;;;9.10;7.38;;;17.70;51.10;;;;;;5051654;28;20055;-69
2022/04/19 12:54:08;;;;;;;17.70;7.22;;;17.60;51.00;;;;;;5070510;28;20048;-69
2022/04/19 12:56:33;;;;;;;6.55;5.78;;;17.50;51.30;;;;;;5063194;28;20064;-69
2022/04/19 12:59:00;;;;;;;9.07;6.20;;;17.60;52.10;;;;;;5071919;28;20135;-69
2022/04/19 13:01:26;;;;;;;7.45;5.80;;;17.70;52.80;;;;;;5070588;28;20055;-69
2022/04/19 13:03:52;;;;;;;9.20;6.95;;;17.70;51.60;;;;;;5071128;28;20045;-69
2022/04/19 13:14:31;;;;;;;7.78;6.53;;;17.80;51.30;;;;;;5070455;28;20052;-69
2022/04/19 13:16:57;;;;;;;8.75;7.85;;;17.60;51.70;;;;;;5071084;28;20094;-68
2022/04/19 13:19:23;;;;;;;11.38;7.10;;;17.60;51.00;;;;;;5071599;28;20494;-69
2022/04/19 13:21:48;;;;;;;12.73;8.50;;;17.70;50.90;;;;;;5056689;28;20506;-69
2022/04/19 13:24:14;;;;;;;10.02;8.00;;;17.50;51.20;;;;;;5069255;28;20037;-68
2022/04/19 13:26:40;;;;;;;11.38;6.38;;;17.50;51.20;;;;;;5070905;28;20043;-69
2022/04/19 13:29:06;;;;;;;27.45;8.40;;;17.50;51.50;;;;;;5071556;28;20048;-69
2022/04/19 13:31:31;;;;;;;12.90;7.28;;;17.60;51.70;;;;;;5060580;28;20063;-69
2022/04/19 13:33:57;;;;;;;11.05;7.45;;;17.60;50.90;;;;;;5051348;28;20090;-68